Hallett, OK (74034)

11:49 PM CDT del 28 Luglio 2015 (GMT -0500)
PAWNEE | | Change Station
CLOSE
Current Station
Stazione meteo personale
Location: Jennings, OK
Altitudine: 925 ft
Stazioni meteo nelle vicinanze

Alt. 925 ft 36.24 °N, 96.60 °W | Updated 12 seconds ago

Sereno
Sereno
82.4 °F
Sembra 85 °F
N
2.2
Vento Variabile Vento da Ovest
Gusts 3.8 mph

Oggi
Massima -- | Minima -- °F
--% Possibilità di precip.
Ieri
Massima -- | Minima -- °F
Precip. -- in
6:29 AM 8:35 PM
Gobba a ponente, 93% visible
Pressione 29.97 in
Visibilità 10.0 miglia
Nuvole Sereno
Indice di calore 85 °F
Punto di rugiada 68 °F
Umidità 62%
Piovosità 0.00 in
Spessore del manto nevoso Non disponibile.
Raggi UV 0 fuori da 12
Polline 3.90 fuori da 12
Qualità dell'aria Non disponibile.
Flu Activity Non disponibile.
METAR KOWP 290435Z AUTO 00000KT 10SM CLR 28/22 A2997 RMK AO2 T02830220

More Conditions Fewer Conditions

Pressione 29.97 in
Visibilità 10.0 miglia
Nuvole Sereno
Indice di calore 85 °F
Punto di rugiada 68 °F
Umidità 62%
Piovosità 0.00 in
Spessore del manto nevoso Non disponibile.
Raggi UV 0 fuori da 12
Polline 3.90 fuori da 12
Qualità dell'aria Non disponibile.
Flu Activity Non disponibile.
METAR KOWP 290435Z AUTO 00000KT 10SM CLR 28/22 A2997 RMK AO2 T02830220

More Conditions Fewer Conditions

10-Day Weather Forecast

×

Almanac

Astronomia

Jul. 28, 2015 Alba Tramonto
Ora attuale
Crepuscolo civile
Crepuscolo nautico
Crepuscolo astronomico
Luna
Estensione della luce visibile
Lunghezza del giorno
Tomorrow will be .
, % of the Moon is Illuminated

Gli estremi di oggi

State Highs State Lows

Community

WunderPhotos

Upload Photos

1,842,045 foto caricate!

WunderBlogs® & News

Nearby

Qualità dell'aria

  Qualità dell'aria Indice AQ Inquinante
Not available.

Profondità neve

Stazione Profondità Altitudine

Attività sismica

Città  Distanza Mag. Data & Ora
Minimo Magnitudo Mostrato è 2.5.

Temperature delle acque costiere

Località Temperatura

Stations

Stazioni meteo nelle vicinanze

Ubicazione della stazione Temp. Raffreddamento del vento Punto di rugiada Umidità Vento Precip. Alt. Aggiornato Tipo